Terminal Aerodrome Forecast
Issued by NWS

Home | Current Version | Previous Version | Text Only | Print | Product List | Glossary On
Versions: 1 2 3 4 5 6 7 8 9 10 11 12 13
000
FTAK31 PAJN 221700
TAFAYA
TAF
PAYA 221730Z 2218/2318 10006KT P6SM -SHRA SCT020 OVC035
      TEMPO 2218/2220 4SM SHRA BR SCT015 OVC025
     FM222000 16005KT P6SM -SHRA SCT025 OVC050
     FM230200 09005KT P6SM VCSH BKN050 OVC080
     FM230700 00000KT P6SM SCT070 BKN120
     FM231400 06005KT P6SM SCT150
      AMD LTD TO CLD VIS AND WIND 2301/2310=

USA.gov is the U.S. government's official web portal to all federal, state and local government web resources and services.